Terminal Aerodrome Forecast
Issued by NWS

Home | Current Version | Previous Version | Graphics & Text | Print | Product List | Glossary On
Versions: 1 2 3 4 5 6 7 8 9 10 11 12 13 14 15 16 17 18 19 20 21 22
928
FTUS43 KLOT 232324
TAFDPA
TAF
KDPA 232324Z 2400/2424 04011KT P6SM FEW060 BKN130 OVC250
     FM240300 05008KT P6SM BKN050
     FM240500 04006KT P6SM VCSH SCT025 OVC035
     FM240900 03005KT P6SM VCSH SCT007 OVC012
     FM241700 02010KT P6SM OVC018
     FM242100 02013KT P6SM BKN035=

USA.gov is the U.S. government's official web portal to all federal, state and local government web resources and services.